CheckWX is a tool to help pilots better visualize weather data.  It is not intended as a substitute for an official pre-flight weather briefing.

04:36:26 UTC

KHLG METAR
Wheeling Ohio Co Airport
Wheeling, West Virginia, USA
Current

43 mins ago

KHLG 170353Z AUTO 02006KT 10SM CLR 21/17 A3008 RMK AO2 SLP181 T02060172
Observed
Sep-17 @ 03:53 UTC
Wind
  • 020° at 6 KTS
Visibility
10 SM
Flight Rules
VFR
Cloud Levels
  • Clear skies
Temperature
21°C / 70°F
Dewpoint
17°C / 63°F
Humidity
78%
Altimeter
30.08" Hg
Pressure
1018.62 hPa
Previous

2 hours ago

KHLG 170253Z AUTO 02005KT 10SM CLR 21/18 A3008 RMK AO2 SLP179 T02110178 53015
Observed
Sep-17 @ 02:53 UTC
Wind
  • 020° at 5 KTS
Visibility
10 SM
Flight Rules
VFR
Cloud Levels
  • Clear skies
Temperature
21°C / 70°F
Dewpoint
18°C / 64°F
Humidity
83%
Altimeter
30.08" Hg
Pressure
1018.62 hPa
Previous

3 hours ago

KHLG 170153Z 01007KT 10SM CLR 22/17 A3006 RMK AO2 SLP174 T02220172
Observed
Sep-17 @ 01:53 UTC
Wind
  • 010° at 7 KTS
Visibility
10 SM
Flight Rules
VFR
Cloud Levels
  • Clear skies
Temperature
22°C / 72°F
Dewpoint
17°C / 63°F
Humidity
73%
Altimeter
30.06" Hg
Pressure
1017.92 hPa